createdAt,value
2017-10-29T00:00:54.288Z,0
2017-10-29T00:02:02.906Z,0
2017-10-29T00:03:11.538Z,0
2017-10-29T00:04:20.167Z,0
2017-10-29T00:05:28.785Z,0
2017-10-29T00:06:37.413Z,0
2017-10-29T00:07:46.046Z,0
2017-10-29T00:08:54.660Z,0
2017-10-29T00:10:03.285Z,0
2017-10-29T00:11:11.917Z,0
2017-10-29T00:12:20.544Z,0
2017-10-29T00:13:29.164Z,0
2017-10-29T00:14:37.804Z,0
2017-10-29T00:15:46.765Z,0
2017-10-29T00:16:55.399Z,0
2017-10-29T00:18:04.021Z,0
2017-10-29T00:19:12.643Z,0
2017-10-29T00:20:21.275Z,0
2017-10-29T00:21:29.899Z,0
2017-10-29T00:22:38.526Z,0
2017-10-29T00:23:47.150Z,0
2017-10-29T00:24:55.781Z,0
2017-10-29T00:26:04.404Z,0
2017-10-29T00:27:13.026Z,0
2017-10-29T00:28:21.652Z,0
2017-10-29T00:29:30.286Z,0
2017-10-29T00:30:38.911Z,0
2017-10-29T00:31:47.538Z,0
2017-10-29T00:32:56.155Z,0
2017-10-29T00:34:04.786Z,0
2017-10-29T00:35:13.411Z,0
2017-10-29T00:36:22.036Z,0
2017-10-29T00:37:30.659Z,0
2017-10-29T00:38:39.290Z,0
2017-10-29T00:39:47.912Z,0
2017-10-29T00:40:56.532Z,0
2017-10-29T00:42:05.165Z,0
2017-10-29T00:43:13.786Z,0
2017-10-29T00:44:22.415Z,0
2017-10-29T00:45:31.036Z,0
2017-10-29T00:46:39.659Z,0
2017-10-29T00:47:48.295Z,0
2017-10-29T00:48:56.918Z,0
2017-10-29T00:50:05.541Z,0
2017-10-29T00:51:14.175Z,0
2017-10-29T00:52:22.800Z,0
2017-10-29T00:53:31.422Z,0
2017-10-29T00:54:40.056Z,0
2017-10-29T00:55:48.685Z,0
2017-10-29T00:56:57.306Z,0
2017-10-29T00:58:05.932Z,0
2017-10-29T00:59:14.557Z,0
2017-10-29T01:00:23.190Z,0
2017-10-29T01:01:31.811Z,0
2017-10-29T01:02:40.433Z,0
2017-10-29T01:03:49.063Z,0
2017-10-29T01:04:57.690Z,0
2017-10-29T01:06:06.308Z,0
2017-10-29T01:07:14.941Z,0
2017-10-29T01:08:23.571Z,0
2017-10-29T01:09:32.189Z,0
2017-10-29T01:10:40.814Z,0
2017-10-29T01:11:49.444Z,0
2017-10-29T01:12:58.069Z,0
2017-10-29T01:14:06.699Z,0
2017-10-29T01:15:15.317Z,0
2017-10-29T01:16:23.942Z,0
2017-10-29T01:17:32.572Z,0
2017-10-29T01:18:41.191Z,0
2017-10-29T01:19:49.824Z,0
2017-10-29T01:20:58.448Z,0
2017-10-29T01:22:07.075Z,0
2017-10-29T01:23:15.706Z,0
2017-10-29T01:24:24.328Z,0
2017-10-29T01:25:32.960Z,0
2017-10-29T01:26:41.918Z,0
2017-10-29T01:27:50.537Z,0
2017-10-29T01:28:59.175Z,0
2017-10-29T01:30:07.797Z,0
2017-10-29T01:31:16.430Z,0
2017-10-29T01:32:25.058Z,0
2017-10-29T01:33:33.678Z,0
2017-10-29T01:34:42.304Z,0
2017-10-29T01:35:50.934Z,0
2017-10-29T01:36:59.553Z,0
2017-10-29T01:38:08.185Z,0
2017-10-29T01:39:16.813Z,0
2017-10-29T01:40:25.434Z,0
2017-10-29T01:41:34.058Z,0
2017-10-29T01:42:42.700Z,0
2017-10-29T01:43:51.316Z,0
2017-10-29T01:44:59.943Z,0
2017-10-29T01:46:08.560Z,0
2017-10-29T01:47:17.188Z,0
2017-10-29T01:48:25.816Z,0
2017-10-29T01:49:34.443Z,0
2017-10-29T01:50:43.067Z,0
2017-10-29T01:51:51.703Z,0
2017-10-29T01:53:00.321Z,0
2017-10-29T01:54:08.948Z,0
2017-10-29T01:55:17.585Z,0
2017-10-29T01:56:26.209Z,0
2017-10-29T01:57:35.172Z,0
2017-10-29T01:58:43.787Z,0
2017-10-29T01:59:52.409Z,0
2017-10-29T02:01:01.044Z,0
2017-10-29T02:02:09.667Z,0
2017-10-29T02:03:18.293Z,0
2017-10-29T02:04:26.927Z,0
2017-10-29T02:05:35.549Z,0
2017-10-29T02:06:44.174Z,0
2017-10-29T02:07:52.809Z,0
2017-10-29T02:09:01.435Z,0
2017-10-29T02:10:10.067Z,0
2017-10-29T02:11:18.715Z,0
2017-10-29T02:12:27.302Z,0
2017-10-29T02:13:35.936Z,0
2017-10-29T02:14:44.557Z,0
2017-10-29T02:15:53.506Z,0
2017-10-29T02:17:02.135Z,0
2017-10-29T02:18:10.761Z,0
2017-10-29T02:19:19.709Z,0
2017-10-29T02:20:28.336Z,0
2017-10-29T02:21:36.959Z,0
2017-10-29T02:22:45.590Z,0
2017-10-29T02:23:54.215Z,0
2017-10-29T02:25:02.842Z,0
2017-10-29T02:26:11.470Z,0
2017-10-29T02:27:20.092Z,0
2017-10-29T02:28:28.725Z,0
2017-10-29T02:29:37.346Z,0
2017-10-29T02:30:46.309Z,0
2017-10-29T02:31:54.940Z,0
2017-10-29T02:33:03.565Z,0
2017-10-29T02:34:12.197Z,0
2017-10-29T02:35:20.820Z,0
2017-10-29T02:36:29.450Z,0
2017-10-29T02:37:38.069Z,0
2017-10-29T02:38:46.695Z,0
2017-10-29T02:39:55.327Z,0
2017-10-29T02:41:04.279Z,0
2017-10-29T02:42:13.246Z,0
2017-10-29T02:43:21.867Z,0
2017-10-29T02:44:30.496Z,0
2017-10-29T02:45:39.125Z,0
2017-10-29T02:46:47.746Z,0
2017-10-29T02:47:56.369Z,0
2017-10-29T02:49:04.994Z,0
2017-10-29T02:50:13.628Z,0
2017-10-29T02:51:22.251Z,0
2017-10-29T02:52:30.873Z,0
2017-10-29T02:53:39.499Z,0
2017-10-29T02:54:48.129Z,0
2017-10-29T02:55:56.753Z,0
2017-10-29T02:57:05.379Z,0
2017-10-29T02:58:14.675Z,0
2017-10-29T02:59:23.305Z,0
2017-10-29T03:00:31.929Z,0
2017-10-29T03:01:40.549Z,0
2017-10-29T03:02:49.508Z,0
2017-10-29T03:03:58.141Z,0
2017-10-29T03:05:06.751Z,0
2017-10-29T03:06:15.381Z,0
2017-10-29T03:07:24.009Z,0
2017-10-29T03:08:32.629Z,0
2017-10-29T03:09:41.256Z,0
2017-10-29T03:10:49.883Z,0
2017-10-29T03:11:58.513Z,0
2017-10-29T03:13:07.472Z,0
2017-10-29T03:14:16.092Z,0
2017-10-29T03:15:24.732Z,0
2017-10-29T03:16:33.347Z,0
2017-10-29T03:17:41.964Z,0
2017-10-29T03:18:50.596Z,0
2017-10-29T03:19:59.220Z,0
2017-10-29T03:21:07.846Z,0
2017-10-29T03:22:16.472Z,0
2017-10-29T03:23:25.095Z,0
2017-10-29T03:24:33.725Z,0
2017-10-29T03:25:42.347Z,0
2017-10-29T03:26:50.985Z,0
2017-10-29T03:27:59.598Z,0
2017-10-29T03:29:08.219Z,0
2017-10-29T03:30:16.846Z,0
2017-10-29T03:31:25.473Z,0
2017-10-29T03:32:34.088Z,0
2017-10-29T03:33:42.712Z,0
2017-10-29T03:34:51.340Z,0
2017-10-29T03:35:59.958Z,0
2017-10-29T03:37:08.585Z,0
2017-10-29T03:38:17.211Z,0
2017-10-29T03:39:25.833Z,0
2017-10-29T03:40:34.466Z,0
2017-10-29T03:41:43.083Z,0
2017-10-29T03:42:51.711Z,0
2017-10-29T03:44:00.338Z,0
2017-10-29T03:45:08.958Z,0
2017-10-29T03:46:17.583Z,0
2017-10-29T03:47:26.212Z,0
2017-10-29T03:48:34.828Z,0
2017-10-29T03:49:43.451Z,0
2017-10-29T03:50:52.085Z,0
2017-10-29T03:52:00.708Z,0
2017-10-29T03:53:09.330Z,0
2017-10-29T03:54:17.957Z,0
2017-10-29T03:55:26.574Z,0
2017-10-29T03:56:35.535Z,0
2017-10-29T03:57:44.157Z,0
2017-10-29T03:58:52.779Z,0
2017-10-29T04:00:01.409Z,0
2017-10-29T04:01:10.032Z,0
2017-10-29T04:02:18.986Z,0
2017-10-29T04:03:27.619Z,0
2017-10-29T04:04:36.240Z,0
2017-10-29T04:05:44.863Z,0
2017-10-29T04:06:53.488Z,0
2017-10-29T04:08:02.118Z,0
2017-10-29T04:09:10.736Z,0
2017-10-29T04:10:19.363Z,0
2017-10-29T04:11:28.316Z,0
2017-10-29T04:12:37.278Z,0
2017-10-29T04:13:45.902Z,0
2017-10-29T04:14:54.529Z,0
2017-10-29T04:16:03.152Z,0
2017-10-29T04:17:11.770Z,0
2017-10-29T04:18:20.401Z,0
2017-10-29T04:19:29.025Z,0
2017-10-29T04:20:37.647Z,0
2017-10-29T04:21:46.283Z,0
2017-10-29T04:22:54.899Z,0
2017-10-29T04:24:03.523Z,0
2017-10-29T04:25:12.148Z,0
2017-10-29T04:26:20.772Z,0
2017-10-29T04:27:29.403Z,0
2017-10-29T04:28:38.025Z,0
2017-10-29T04:29:46.648Z,0
2017-10-29T04:30:55.280Z,0
2017-10-29T04:32:03.906Z,0
2017-10-29T04:33:12.524Z,0
2017-10-29T04:34:21.152Z,0
2017-10-29T04:35:29.778Z,0
2017-10-29T04:36:38.398Z,0
2017-10-29T04:37:47.030Z,0
2017-10-29T04:38:55.651Z,0
2017-10-29T04:40:04.281Z,0
2017-10-29T04:41:12.901Z,0
2017-10-29T04:42:21.861Z,0
2017-10-29T04:43:30.488Z,0
2017-10-29T04:44:39.116Z,0
2017-10-29T04:45:48.067Z,0
2017-10-29T04:46:56.695Z,0
2017-10-29T04:48:05.332Z,0
2017-10-29T04:49:13.940Z,0
2017-10-29T04:50:22.568Z,0
2017-10-29T04:51:31.526Z,0
2017-10-29T04:52:40.148Z,0
2017-10-29T04:53:48.782Z,0
2017-10-29T04:54:57.400Z,0
2017-10-29T04:56:06.024Z,0
2017-10-29T04:57:14.652Z,0
2017-10-29T04:58:23.268Z,0
2017-10-29T04:59:31.898Z,0
2017-10-29T05:00:40.523Z,0
2017-10-29T05:01:49.146Z,0
2017-10-29T05:02:57.767Z,0
2017-10-29T05:04:06.398Z,0
2017-10-29T05:05:15.019Z,0
2017-10-29T05:06:23.638Z,0
2017-10-29T05:07:32.273Z,0
2017-10-29T05:08:40.892Z,0
2017-10-29T05:09:49.521Z,0
2017-10-29T05:10:58.152Z,0
2017-10-29T05:12:07.109Z,0
2017-10-29T05:13:15.749Z,0
2017-10-29T05:14:24.704Z,0
2017-10-29T05:15:33.329Z,0
2017-10-29T05:16:41.946Z,0
2017-10-29T05:17:50.574Z,0
2017-10-29T05:18:59.200Z,0
2017-10-29T05:20:07.823Z,0
2017-10-29T05:21:16.446Z,0
2017-10-29T05:22:25.080Z,0
2017-10-29T05:23:33.703Z,0
2017-10-29T05:24:42.329Z,0
2017-10-29T05:25:50.946Z,0
2017-10-29T05:26:59.573Z,0
2017-10-29T05:28:08.531Z,0
2017-10-29T05:29:17.154Z,0
2017-10-29T05:30:25.775Z,0
2017-10-29T05:31:34.410Z,0
2017-10-29T05:32:43.033Z,0
2017-10-29T05:33:51.656Z,0
2017-10-29T05:35:00.285Z,0
2017-10-29T05:36:08.907Z,0
2017-10-29T05:37:17.534Z,0
2017-10-29T05:38:26.155Z,0
2017-10-29T05:39:34.780Z,0
2017-10-29T05:40:43.410Z,0
2017-10-29T05:41:52.043Z,0
2017-10-29T05:43:00.653Z,0
2017-10-29T05:44:09.285Z,0
2017-10-29T05:45:17.909Z,0
2017-10-29T05:46:26.530Z,0
2017-10-29T05:47:35.158Z,0
2017-10-29T05:48:43.787Z,0
2017-10-29T05:49:52.403Z,0
2017-10-29T05:51:01.032Z,0
2017-10-29T05:52:09.656Z,0
2017-10-29T05:53:18.289Z,0
2017-10-29T05:54:26.912Z,0
2017-10-29T05:55:35.532Z,0
2017-10-29T05:56:44.166Z,0
2017-10-29T05:57:52.784Z,0
2017-10-29T05:59:01.402Z,0
2017-10-29T06:00:10.032Z,0
2017-10-29T06:01:18.655Z,0
2017-10-29T06:02:27.270Z,0
2017-10-29T06:03:35.898Z,0
2017-10-29T06:04:44.524Z,0
2017-10-29T06:05:53.144Z,0
2017-10-29T06:07:01.775Z,0
2017-10-29T06:08:10.390Z,0
2017-10-29T06:09:19.018Z,0
2017-10-29T06:10:27.642Z,0
2017-10-29T06:11:36.256Z,0
2017-10-29T06:12:44.886Z,0
2017-10-29T06:13:53.513Z,0
2017-10-29T06:15:02.141Z,0
2017-10-29T06:16:11.103Z,5
2017-10-29T06:17:19.717Z,5
2017-10-29T06:18:28.342Z,5
2017-10-29T06:19:36.968Z,5
2017-10-29T06:20:45.587Z,5
2017-10-29T06:21:54.214Z,5
2017-10-29T06:23:02.836Z,5
2017-10-29T06:24:11.464Z,5
2017-10-29T06:25:20.089Z,10
2017-10-29T06:26:28.710Z,10
2017-10-29T06:27:37.330Z,10
2017-10-29T06:28:45.958Z,10
2017-10-29T06:29:54.574Z,10
2017-10-29T06:31:03.198Z,10
2017-10-29T06:32:11.826Z,10
2017-10-29T06:33:20.445Z,15
2017-10-29T06:34:29.067Z,15
2017-10-29T06:35:37.699Z,15
2017-10-29T06:36:46.329Z,15
2017-10-29T06:37:54.953Z,20
2017-10-29T06:39:03.568Z,20
2017-10-29T06:40:12.191Z,20
2017-10-29T06:41:20.819Z,20
2017-10-29T06:42:29.441Z,20
2017-10-29T06:43:38.065Z,25
2017-10-29T06:44:46.679Z,25
2017-10-29T06:45:55.308Z,30
2017-10-29T06:47:03.932Z,30
2017-10-29T06:48:12.551Z,30
2017-10-29T06:49:21.175Z,30
2017-10-29T06:50:29.800Z,35
2017-10-29T06:51:38.430Z,40
2017-10-29T06:52:47.055Z,40
2017-10-29T06:53:55.673Z,45
2017-10-29T06:55:04.300Z,45
2017-10-29T06:56:12.926Z,50
2017-10-29T06:57:21.545Z,50
2017-10-29T06:58:30.171Z,55
2017-10-29T06:59:38.796Z,65
2017-10-29T07:00:47.411Z,60
2017-10-29T07:01:56.034Z,60
2017-10-29T07:03:04.663Z,55
2017-10-29T07:04:13.287Z,45
2017-10-29T07:05:22.248Z,50
2017-10-29T07:06:30.866Z,50
2017-10-29T07:07:39.494Z,50
2017-10-29T07:08:48.120Z,55
2017-10-29T07:09:56.739Z,55
2017-10-29T07:11:05.362Z,50
2017-10-29T07:12:13.993Z,60
2017-10-29T07:13:22.612Z,50
2017-10-29T07:14:31.240Z,55
2017-10-29T07:15:39.857Z,60
2017-10-29T07:16:48.486Z,50
2017-10-29T07:17:57.108Z,50
2017-10-29T07:19:05.730Z,55
2017-10-29T07:20:14.697Z,55
2017-10-29T07:21:23.315Z,55
2017-10-29T07:22:31.942Z,60
2017-10-29T07:23:40.566Z,60
2017-10-29T07:24:49.184Z,60
2017-10-29T07:25:57.809Z,60
2017-10-29T07:27:06.437Z,65
2017-10-29T07:28:15.062Z,65
2017-10-29T07:29:23.682Z,75
2017-10-29T07:30:32.316Z,80
2017-10-29T07:31:41.263Z,90
2017-10-29T07:32:49.890Z,75
2017-10-29T07:33:58.525Z,75
2017-10-29T07:35:07.139Z,65
2017-10-29T07:36:15.765Z,65
2017-10-29T07:37:24.388Z,65
2017-10-29T07:38:33.009Z,65
2017-10-29T07:39:41.642Z,70
2017-10-29T07:40:50.262Z,75
2017-10-29T07:41:58.887Z,75
2017-10-29T07:43:07.519Z,75
2017-10-29T07:44:16.135Z,70
2017-10-29T07:45:24.758Z,70
2017-10-29T07:46:33.384Z,70
2017-10-29T07:47:42.018Z,75
2017-10-29T07:48:50.629Z,80
2017-10-29T07:49:59.255Z,80
2017-10-29T07:51:07.877Z,80
2017-10-29T07:52:16.513Z,75
2017-10-29T07:53:25.134Z,75
2017-10-29T07:54:33.755Z,80
2017-10-29T07:55:42.384Z,80
2017-10-29T07:56:51.006Z,85
2017-10-29T07:57:59.623Z,85
2017-10-29T07:59:08.255Z,85
2017-10-29T08:00:17.214Z,85
2017-10-29T08:01:25.834Z,85
2017-10-29T08:02:34.458Z,85
2017-10-29T08:03:43.091Z,90
2017-10-29T08:04:51.724Z,95
2017-10-29T08:06:00.339Z,100
2017-10-29T08:07:08.957Z,100
2017-10-29T08:08:17.584Z,100
2017-10-29T08:09:26.218Z,105
2017-10-29T08:10:34.832Z,105
2017-10-29T08:11:43.469Z,100
2017-10-29T08:12:52.088Z,100
2017-10-29T08:14:00.721Z,90
2017-10-29T08:15:09.350Z,100
2017-10-29T08:16:17.970Z,95
2017-10-29T08:17:26.598Z,100
2017-10-29T08:18:35.220Z,105
2017-10-29T08:19:43.856Z,110
2017-10-29T08:20:52.477Z,110
2017-10-29T08:22:01.100Z,100
2017-10-29T08:23:09.726Z,85
2017-10-29T08:24:18.354Z,85
2017-10-29T08:25:26.970Z,100
2017-10-29T08:26:35.597Z,95
2017-10-29T08:27:44.227Z,100
2017-10-29T08:28:52.843Z,95
2017-10-29T08:30:01.472Z,100
2017-10-29T08:31:10.098Z,105
2017-10-29T08:32:18.720Z,105
2017-10-29T08:33:27.695Z,110
2017-10-29T08:34:36.315Z,115
2017-10-29T08:35:44.942Z,130
2017-10-29T08:36:53.570Z,135
2017-10-29T08:38:02.520Z,115
2017-10-29T08:39:11.144Z,105
2017-10-29T08:40:19.774Z,105
2017-10-29T08:41:28.396Z,100
2017-10-29T08:42:37.023Z,110
2017-10-29T08:43:45.656Z,110
2017-10-29T08:44:54.276Z,110
2017-10-29T08:46:02.899Z,110
2017-10-29T08:47:11.534Z,110
2017-10-29T08:48:20.149Z,110
2017-10-29T08:49:28.775Z,115
2017-10-29T08:50:37.397Z,115
2017-10-29T08:51:46.024Z,130
2017-10-29T08:52:54.650Z,150
2017-10-29T08:54:03.273Z,170
2017-10-29T08:55:11.902Z,155
2017-10-29T08:56:20.539Z,135
2017-10-29T08:57:29.160Z,155
2017-10-29T08:58:37.783Z,195
2017-10-29T08:59:46.411Z,215
2017-10-29T09:00:55.040Z,195
2017-10-29T09:02:03.664Z,165
2017-10-29T09:03:12.292Z,145
2017-10-29T09:04:20.912Z,160
2017-10-29T09:05:29.543Z,145
2017-10-29T09:06:38.169Z,140
2017-10-29T09:07:47.127Z,125
2017-10-29T09:08:55.758Z,105
2017-10-29T09:10:04.377Z,90
2017-10-29T09:11:13.015Z,90
2017-10-29T09:12:21.636Z,95
2017-10-29T09:13:30.260Z,110
2017-10-29T09:14:38.891Z,125
2017-10-29T09:15:47.516Z,110
2017-10-29T09:16:56.140Z,125
2017-10-29T09:18:04.762Z,130
2017-10-29T09:19:13.387Z,135
2017-10-29T09:20:22.016Z,140
2017-10-29T09:21:30.641Z,175
2017-10-29T09:22:39.590Z,210
2017-10-29T09:23:48.228Z,235
2017-10-29T09:24:56.847Z,235
2017-10-29T09:26:05.470Z,215
2017-10-29T09:27:14.098Z,190
2017-10-29T09:28:22.728Z,180
2017-10-29T09:29:31.349Z,190
2017-10-29T09:30:40.313Z,155
2017-10-29T09:31:48.935Z,120
2017-10-29T09:32:57.568Z,110
2017-10-29T09:34:06.190Z,120
2017-10-29T09:35:14.812Z,130
2017-10-29T09:36:23.442Z,150
2017-10-29T09:37:32.070Z,135
2017-10-29T09:38:40.686Z,125
2017-10-29T09:39:49.319Z,140
2017-10-29T09:40:57.948Z,140
2017-10-29T09:42:06.569Z,105
2017-10-29T09:43:15.198Z,130
2017-10-29T09:44:23.823Z,130
2017-10-29T09:45:32.446Z,130
2017-10-29T09:46:41.074Z,130
2017-10-29T09:47:49.693Z,130
2017-10-29T09:48:58.318Z,135
2017-10-29T09:50:06.948Z,135
2017-10-29T09:51:15.568Z,110
2017-10-29T09:52:24.194Z,135
2017-10-29T09:53:32.820Z,135
2017-10-29T09:54:41.440Z,135
2017-10-29T09:55:50.070Z,140
2017-10-29T09:56:58.701Z,145
2017-10-29T09:58:07.325Z,160
2017-10-29T09:59:15.949Z,170
2017-10-29T10:00:24.580Z,190
2017-10-29T10:01:33.202Z,215
2017-10-29T10:02:42.165Z,220
2017-10-29T10:03:50.787Z,175
2017-10-29T10:05:00.068Z,190
2017-10-29T10:06:08.703Z,165
2017-10-29T10:07:17.327Z,165
2017-10-29T10:08:25.961Z,155
2017-10-29T10:09:34.574Z,145
2017-10-29T10:10:43.203Z,130
2017-10-29T10:11:51.835Z,125
2017-10-29T10:13:00.462Z,140
2017-10-29T10:14:09.088Z,140
2017-10-29T10:15:17.721Z,130
2017-10-29T10:16:26.347Z,125
2017-10-29T10:17:34.987Z,180
2017-10-29T10:18:43.594Z,155
2017-10-29T10:19:52.552Z,165
2017-10-29T10:21:01.183Z,160
2017-10-29T10:22:09.809Z,210
2017-10-29T10:23:18.437Z,175
2017-10-29T10:24:27.063Z,145
2017-10-29T10:25:35.686Z,135
2017-10-29T10:26:44.308Z,140
2017-10-29T10:27:52.941Z,135
2017-10-29T10:29:01.562Z,135
2017-10-29T10:30:10.189Z,135
2017-10-29T10:31:18.811Z,135
2017-10-29T10:32:27.438Z,140
2017-10-29T10:33:36.070Z,130
2017-10-29T10:34:44.697Z,125
2017-10-29T10:35:53.323Z,130
2017-10-29T10:37:01.957Z,145
2017-10-29T10:38:10.577Z,145
2017-10-29T10:39:19.204Z,140
2017-10-29T10:40:27.832Z,145
2017-10-29T10:41:36.454Z,145
2017-10-29T10:42:45.086Z,155
2017-10-29T10:43:53.711Z,170
2017-10-29T10:45:02.341Z,220
2017-10-29T10:46:10.961Z,245
2017-10-29T10:47:19.592Z,250
2017-10-29T10:48:28.220Z,255
2017-10-29T10:49:36.846Z,225
2017-10-29T10:50:45.467Z,185
2017-10-29T10:51:54.103Z,170
2017-10-29T10:53:02.728Z,160
2017-10-29T10:54:11.351Z,135
2017-10-29T10:55:19.984Z,125
2017-10-29T10:56:28.608Z,160
2017-10-29T10:57:37.234Z,170
2017-10-29T10:58:45.862Z,175
2017-10-29T10:59:54.481Z,130
2017-10-29T11:01:03.114Z,175
2017-10-29T11:02:11.735Z,225
2017-10-29T11:03:20.364Z,175
2017-10-29T11:04:28.991Z,160
2017-10-29T11:05:37.635Z,140
2017-10-29T11:06:46.239Z,125
2017-10-29T11:07:54.862Z,135
2017-10-29T11:09:03.490Z,150
2017-10-29T11:10:12.123Z,160
2017-10-29T11:11:20.749Z,140
2017-10-29T11:12:29.372Z,135
2017-10-29T11:13:38.006Z,145
2017-10-29T11:14:46.626Z,175
2017-10-29T11:15:55.256Z,170
2017-10-29T11:17:03.884Z,210
2017-10-29T11:18:12.507Z,250
2017-10-29T11:19:21.145Z,275
2017-10-29T11:20:29.766Z,260
2017-10-29T11:21:38.395Z,205
2017-10-29T11:22:47.030Z,195
2017-10-29T11:23:55.654Z,180
2017-10-29T11:25:04.280Z,190
2017-10-29T11:26:12.910Z,195
2017-10-29T11:27:21.540Z,185
2017-10-29T11:28:30.161Z,190
2017-10-29T11:29:38.789Z,160
2017-10-29T11:30:47.411Z,125
2017-10-29T11:31:56.048Z,100
2017-10-29T11:33:04.673Z,75
2017-10-29T11:34:13.296Z,60
2017-10-29T11:35:21.927Z,55
2017-10-29T11:36:30.556Z,60
2017-10-29T11:37:39.178Z,65
2017-10-29T11:38:48.135Z,80
2017-10-29T11:39:56.764Z,105
2017-10-29T11:41:05.384Z,140
2017-10-29T11:42:14.016Z,150
2017-10-29T11:43:22.644Z,120
2017-10-29T11:44:31.271Z,95
2017-10-29T11:45:39.899Z,95
2017-10-29T11:46:48.521Z,100
2017-10-29T11:47:57.154Z,130
2017-10-29T11:49:05.778Z,135
2017-10-29T11:50:14.395Z,140
2017-10-29T11:51:23.023Z,120
2017-10-29T11:52:31.653Z,125
2017-10-29T11:53:40.279Z,135
2017-10-29T11:54:48.908Z,140
2017-10-29T11:55:57.538Z,135
2017-10-29T11:57:06.162Z,140
2017-10-29T11:58:14.790Z,140
2017-10-29T11:59:23.407Z,135
2017-10-29T12:00:32.037Z,140
2017-10-29T12:01:40.663Z,140
2017-10-29T12:02:49.287Z,140
2017-10-29T12:03:57.908Z,140
2017-10-29T12:05:06.543Z,140
2017-10-29T12:06:15.161Z,140
2017-10-29T12:07:23.787Z,165
2017-10-29T12:08:32.405Z,160
2017-10-29T12:09:41.038Z,155
2017-10-29T12:10:49.661Z,145
2017-10-29T12:11:58.288Z,150
2017-10-29T12:13:06.917Z,150
2017-10-29T12:14:15.535Z,130
2017-10-29T12:15:24.161Z,115
2017-10-29T12:16:32.792Z,120
2017-10-29T12:17:41.408Z,175
2017-10-29T12:18:50.035Z,115
2017-10-29T12:19:58.662Z,140
2017-10-29T12:21:07.287Z,140
2017-10-29T12:22:15.912Z,95
2017-10-29T12:23:24.545Z,95
2017-10-29T12:24:33.168Z,110
2017-10-29T12:25:41.790Z,135
2017-10-29T12:26:50.421Z,100
2017-10-29T12:27:59.041Z,110
2017-10-29T12:29:07.669Z,140
2017-10-29T12:30:16.294Z,145
2017-10-29T12:31:24.915Z,145
2017-10-29T12:32:33.549Z,140
2017-10-29T12:33:42.168Z,145
2017-10-29T12:34:50.793Z,145
2017-10-29T12:35:59.427Z,145
2017-10-29T12:37:08.049Z,150
2017-10-29T12:38:16.671Z,155
2017-10-29T12:39:25.298Z,145
2017-10-29T12:40:33.925Z,145
2017-10-29T12:41:42.545Z,135
2017-10-29T12:42:51.172Z,145
2017-10-29T12:43:59.796Z,140
2017-10-29T12:45:08.427Z,155
2017-10-29T12:46:17.050Z,145
2017-10-29T12:47:25.676Z,145
2017-10-29T12:48:34.307Z,140
2017-10-29T12:49:42.934Z,150
2017-10-29T12:50:51.553Z,155
2017-10-29T12:52:00.181Z,170
2017-10-29T12:53:08.814Z,175
2017-10-29T12:54:17.433Z,155
2017-10-29T12:55:26.065Z,145
2017-10-29T12:56:34.693Z,120
2017-10-29T12:57:43.324Z,155
2017-10-29T12:58:51.950Z,140
2017-10-29T13:00:00.572Z,175
2017-10-29T13:01:09.210Z,140
2017-10-29T13:02:17.831Z,155
2017-10-29T13:03:26.449Z,120
2017-10-29T13:04:35.079Z,165
2017-10-29T13:05:43.704Z,150
2017-10-29T13:06:52.341Z,165
2017-10-29T13:08:00.965Z,185
2017-10-29T13:09:09.587Z,170
2017-10-29T13:10:18.213Z,195
2017-10-29T13:11:26.838Z,170
2017-10-29T13:12:35.469Z,155
2017-10-29T13:13:44.097Z,170
2017-10-29T13:14:53.086Z,145
2017-10-29T13:16:01.681Z,140
2017-10-29T13:17:10.311Z,140
2017-10-29T13:18:18.930Z,165
2017-10-29T13:19:27.561Z,120
2017-10-29T13:20:36.189Z,140
2017-10-29T13:21:44.809Z,145
2017-10-29T13:22:53.438Z,140
2017-10-29T13:24:02.068Z,125
2017-10-29T13:25:10.697Z,160
2017-10-29T13:26:19.329Z,135
2017-10-29T13:27:28.279Z,125
2017-10-29T13:28:36.907Z,130
2017-10-29T13:29:45.539Z,130
2017-10-29T13:30:54.161Z,125
2017-10-29T13:32:02.792Z,130
2017-10-29T13:33:11.424Z,130
2017-10-29T13:34:20.048Z,125
2017-10-29T13:35:28.668Z,170
2017-10-29T13:36:37.308Z,150
2017-10-29T13:37:45.927Z,145
2017-10-29T13:38:54.554Z,155
2017-10-29T13:40:03.188Z,130
2017-10-29T13:41:11.805Z,125
2017-10-29T13:42:20.442Z,130
2017-10-29T13:43:29.060Z,145
2017-10-29T13:44:37.685Z,150
2017-10-29T13:45:46.320Z,150
2017-10-29T13:46:54.950Z,150
2017-10-29T13:48:03.576Z,155
2017-10-29T13:49:12.536Z,155
2017-10-29T13:50:21.529Z,165
2017-10-29T13:51:30.150Z,160
2017-10-29T13:52:38.780Z,160
2017-10-29T13:53:47.406Z,160
2017-10-29T13:54:56.031Z,160
2017-10-29T13:56:04.669Z,160
2017-10-29T13:57:13.294Z,130
2017-10-29T13:58:21.928Z,150
2017-10-29T13:59:30.557Z,145
2017-10-29T14:00:39.179Z,135
2017-10-29T14:01:47.808Z,125
2017-10-29T14:02:56.428Z,115
2017-10-29T14:04:05.063Z,95
2017-10-29T14:05:13.683Z,95
2017-10-29T14:06:22.309Z,85
2017-10-29T14:07:30.949Z,90
2017-10-29T14:08:39.900Z,90
2017-10-29T14:09:48.525Z,85
2017-10-29T14:10:57.151Z,95
2017-10-29T14:12:05.780Z,85
2017-10-29T14:13:14.408Z,85
2017-10-29T14:14:23.363Z,85
2017-10-29T14:15:31.991Z,95
2017-10-29T14:16:40.652Z,85
2017-10-29T14:17:49.251Z,90
2017-10-29T14:18:57.869Z,90
2017-10-29T14:20:06.499Z,80
2017-10-29T14:21:15.127Z,85
2017-10-29T14:22:23.745Z,85
2017-10-29T14:23:32.370Z,85
2017-10-29T14:24:40.995Z,80
2017-10-29T14:25:49.628Z,80
2017-10-29T14:26:58.253Z,80
2017-10-29T14:28:06.875Z,80
2017-10-29T14:29:15.504Z,80
2017-10-29T14:30:24.131Z,80
2017-10-29T14:31:32.747Z,80
2017-10-29T14:32:41.376Z,75
2017-10-29T14:33:50.004Z,75
2017-10-29T14:34:58.633Z,75
2017-10-29T14:36:07.256Z,75
2017-10-29T14:37:15.882Z,75
2017-10-29T14:38:24.513Z,75
2017-10-29T14:39:33.135Z,75
2017-10-29T14:40:41.764Z,75
2017-10-29T14:41:50.380Z,75
2017-10-29T14:42:59.004Z,75
2017-10-29T14:44:07.634Z,75
2017-10-29T14:45:16.262Z,75
2017-10-29T14:46:24.884Z,75
2017-10-29T14:47:33.515Z,75
2017-10-29T14:48:42.485Z,75
2017-10-29T14:49:51.107Z,70
2017-10-29T14:50:59.733Z,70
2017-10-29T14:52:08.359Z,70
2017-10-29T14:53:17.309Z,70
2017-10-29T14:54:25.933Z,70
2017-10-29T14:55:34.558Z,65
2017-10-29T14:56:43.188Z,65
2017-10-29T14:57:51.814Z,65
2017-10-29T14:59:00.434Z,65
2017-10-29T15:00:09.060Z,60
2017-10-29T15:01:17.687Z,60
2017-10-29T15:02:26.319Z,60
2017-10-29T15:03:34.945Z,65
2017-10-29T15:04:43.564Z,70
2017-10-29T15:05:52.191Z,85
2017-10-29T15:07:00.821Z,80
2017-10-29T15:08:09.440Z,80
2017-10-29T15:09:18.068Z,75
2017-10-29T15:10:26.688Z,70
2017-10-29T15:11:35.318Z,60
2017-10-29T15:12:43.945Z,60
2017-10-29T15:13:52.578Z,60
2017-10-29T15:15:01.196Z,60
2017-10-29T15:16:09.824Z,60
2017-10-29T15:17:18.445Z,60
2017-10-29T15:18:27.078Z,65
2017-10-29T15:19:35.700Z,55
2017-10-29T15:20:44.327Z,50
2017-10-29T15:21:52.949Z,45
2017-10-29T15:23:01.579Z,45
2017-10-29T15:24:10.217Z,40
2017-10-29T15:25:18.833Z,40
2017-10-29T15:26:27.782Z,40
2017-10-29T15:27:36.409Z,40
2017-10-29T15:28:45.044Z,35
2017-10-29T15:29:53.653Z,35
2017-10-29T15:31:02.284Z,35
2017-10-29T15:32:10.916Z,35
2017-10-29T15:33:19.539Z,35
2017-10-29T15:34:28.161Z,35
2017-10-29T15:35:36.794Z,30
2017-10-29T15:36:45.746Z,30
2017-10-29T15:37:54.373Z,30
2017-10-29T15:39:03.321Z,25
2017-10-29T15:40:11.949Z,25
2017-10-29T15:41:20.575Z,25
2017-10-29T15:42:29.201Z,25
2017-10-29T15:43:37.820Z,25
2017-10-29T15:44:46.453Z,20
2017-10-29T15:45:55.409Z,20
2017-10-29T15:47:04.034Z,20
2017-10-29T15:48:12.668Z,20
2017-10-29T15:49:21.291Z,20
2017-10-29T15:50:29.920Z,20
2017-10-29T15:51:38.541Z,15
2017-10-29T15:52:47.160Z,15
2017-10-29T15:53:56.128Z,15
2017-10-29T15:55:04.744Z,15
2017-10-29T15:56:13.369Z,10
2017-10-29T15:57:22.001Z,10
2017-10-29T15:58:30.628Z,10
2017-10-29T15:59:39.253Z,10
2017-10-29T16:00:48.208Z,10
2017-10-29T16:01:56.829Z,5
2017-10-29T16:03:05.462Z,5
2017-10-29T16:04:14.085Z,5
2017-10-29T16:05:22.709Z,5
2017-10-29T16:06:31.342Z,5
2017-10-29T16:07:39.962Z,5
2017-10-29T16:08:48.587Z,5
2017-10-29T16:09:57.213Z,5
2017-10-29T16:11:05.837Z,0
2017-10-29T16:12:14.470Z,0
2017-10-29T16:13:23.101Z,0
2017-10-29T16:14:31.720Z,0
2017-10-29T16:15:40.354Z,0
2017-10-29T16:16:48.975Z,0
2017-10-29T16:17:57.600Z,0
2017-10-29T16:19:06.231Z,0
2017-10-29T16:20:14.855Z,0
2017-10-29T16:21:23.474Z,0